Omaha, NE

9:10 AM CST on January 16, 2018 (GMT -0600)
Midtown Crossing area | | Change Station
Active Advisory: Wind Chill Advisory

Elev 1161 ft 41.26 °N, 95.96 °W | Updated 7 seconds ago

Light Snow
Light Snow
-0.6 °F
Feels Like -14 °F
N
7.6
Wind Variable Wind from NNE
Gusts 9.8 mph

Today
High -- | Low -- °F
--% Chance of Precip.
Yesterday
High -- | Low -- °F
Precip. -- in
Pressure 30.85 in
Visibility 9.0 miles
Clouds Overcast 1900 ft
Windchill -14 °F
Dew Point -27 °F
Humidity 27%
Rainfall 0.00 in
Snow Depth Not available.
7:46 AM 5:20 PM
Waning Crescent, 0% visible
METAR KOMA 161452Z 32014KT 9SM -SN OVC019 M18/M22 A3077 RMK AO2 SNB15 SLP446 P0000 60000 T11781217 51011
Pressure 30.85 in
Visibility 9.0 miles
Clouds Overcast 1900 ft
Windchill -14 °F
Dew Point -27 °F
Humidity 27%
Rainfall 0.00 in
Snow Depth Not available.
7:46 AM 5:20 PM
Waning Crescent, 0% visible
METAR KOMA 161452Z 32014KT 9SM -SN OVC019 M18/M22 A3077 RMK AO2 SNB15 SLP446 P0000 60000 T11781217 51011

Get Your Daily Forecast Email!

Thanks for signing up!

Be on the lookout for a verification email in your inbox.

You'll start receiving severe weather alerts in your inbox..

×

10-Day Weather Forecast

Almanac

Astronomy

Jan. 16, 2018 Rise Set
Actual Time
Civil Twilight
Nautical Twilight
Astronomical Twilight
Moon
Length of Visible Light
Length of Day
Tomorrow will be .
, % of the Moon is Illuminated

Today's Extremes

State Highs State Lows

Community

WunderPhotos

Category 6

Welcome to Category 6. This is the collective home for Weather Underground's featured writeups by Dr. Jeff Masters (right), Bob Henson (left), Chris Burt, and other regular contributors.

Nearby

Air Quality

  Air Quality AQ Index Pollutant
Not available.

Snow Depth

Station Depth Elevation

Earthquake Activity

City Distance Mag. Time & Date
Minimum magnitude displayed is 2.5.

Coastal Water Temperatures

Place Temperature

Stations

Nearby Weather Stations

Station Location Temp. Windchill Dew Point Humidity Wind Precip. Elev Updated Type
                   

Watches & Warnings

Wind Chill Advisory
Issued: 3:16 AM CST Jan. 16, 2018 – National Weather Service

... Wind Chill Advisory remains in effect until noon CST today...

* what... very cold wind chills expected. The cold wind chills will
cause frostbite in as little as 30 minutes to exposed skin.
Expect wind chills to range from 18 below zero to 26 below
zero.

* Where... portions of east central and northeast Nebraska and
southwest and west central Iowa.

* When... until noon CST Tuesday.

Precautionary/preparedness actions...

A Wind Chill Advisory means that cold air and the wind will
combine to create low wind chills. Frost bite and hypothermia can
occur if precautions are not taken. Make sure you wear a hat and
gloves.